Time;durP1;ratioP1;P1;durP2;ratioP2;P2;SDS_P1;SDS_P2;PMS_P1;PMS_P2;Temp;Humidity;BMP_temperature;BMP_pressure;BME280_temperature;BME280_humidity;BME280_pressure;Samples;Min_cycle;Max_cycle;Signal;HPM_P1;HPM_P2
2022/11/14 00:00:42;;;;;;;;;;;;;;;21.42;57.10;101876.44;5073394;28;2886;-65
2022/11/14 00:03:27;;;;;;;;;;;;;;;21.41;57.07;101879.94;5065591;28;2758;-65
2022/11/14 00:06:11;;;;;;;;;;;;;;;21.38;57.09;101873.28;5057787;28;2908;-65
2022/11/14 00:08:56;;;;;;;;;;;;;;;21.40;57.09;101878.44;5047705;28;2972;-65
2022/11/14 00:11:41;;;;;;;;;;;;;;;21.40;57.06;101881.31;5049119;28;3006;-64
2022/11/14 00:14:26;;;;;;;;;;;;;;;21.37;57.08;101871.78;5054294;28;2969;-65
2022/11/14 00:17:11;;;;;;;;;;;;;;;21.38;56.92;101861.03;5061644;28;2909;-65
2022/11/14 00:19:56;;;;;;;;;;;;;;;21.32;57.09;101862.16;5063150;28;2750;-65
2022/11/14 00:22:41;;;;;;;;;;;;;;;21.34;57.20;101864.41;5060039;28;3096;-64
2022/11/14 00:25:26;;;;;;;;;;;;;;;21.34;57.02;101856.50;5060306;28;2972;-65
2022/11/14 00:28:10;;;;;;;;;;;;;;;21.33;56.86;101860.03;5059662;28;3053;-65
2022/11/14 00:30:55;;;;;;;;;;;;;;;21.32;56.88;101856.38;5058633;28;2981;-64
2022/11/14 00:33:40;;;;;;;;;;;;;;;21.36;57.08;101852.25;5061788;28;2979;-65
2022/11/14 00:36:25;;;;;;;;;;;;;;;21.32;56.79;101844.13;5062581;28;2949;-64
2022/11/14 00:39:11;;;;;;;;;;;;;;;21.31;57.15;101840.50;5065367;28;2873;-65
2022/11/14 00:41:56;;;;;;;;;;;;;;;21.32;57.11;101849.88;5068866;28;2882;-65
2022/11/14 00:44:40;;;;;;;;;;;;;;;21.31;57.15;101843.38;5061879;28;2882;-65
2022/11/14 00:47:25;;;;;;;;;;;;;;;21.30;57.20;101839.00;5059020;28;3009;-65
2022/11/14 00:50:10;;;;;;;;;;;;;;;21.30;57.00;101829.59;5063619;28;2848;-65
2022/11/14 00:52:55;;;;;;;;;;;;;;;21.28;57.27;101827.38;5066330;28;2673;-65
2022/11/14 00:55:40;;;;;;;;;;;;;;;21.28;56.97;101830.25;5066804;28;2219;-65
2022/11/14 00:58:25;;;;;;;;;;;;;;;21.28;57.22;101838.88;5076069;28;2666;-66
2022/11/14 01:01:10;;;;;;;;;;;;;;;21.26;57.25;101827.25;5058261;28;2932;-65
2022/11/14 01:03:54;;;;;;;;;;;;;;;21.26;57.23;101830.13;5064047;28;2858;-65
2022/11/14 01:06:39;;;;;;;;;;;;;;;21.27;57.19;101814.31;5069174;28;2814;-65
2022/11/14 01:09:24;;;;;;;;;;;;;;;21.26;57.04;101823.63;5067777;28;2847;-65
2022/11/14 01:12:09;;;;;;;;;;;;;;;21.27;57.18;101825.09;5059550;28;2942;-65
2022/11/14 01:14:54;;;;;;;;;;;;;;;21.26;57.05;101823.63;5061148;28;2918;-65
2022/11/14 01:17:39;;;;;;;;;;;;;;;21.23;57.20;101813.34;5060015;28;2985;-65
2022/11/14 01:20:24;;;;;;;;;;;;;;;21.22;57.12;101815.47;5071106;28;2598;-65
2022/11/14 01:23:09;;;;;;;;;;;;;;;21.21;57.22;101801.69;5066459;28;2870;-65
2022/11/14 01:25:53;;;;;;;;;;;;;;;21.21;57.33;101795.94;5062782;28;2618;-65
2022/11/14 01:28:38;;;;;;;;;;;;;;;21.22;57.08;101803.94;5054340;28;3183;-65
2022/11/14 01:31:24;;;;;;;;;;;;;;;21.20;57.04;101794.44;5052939;28;2926;-65
2022/11/14 01:34:09;;;;;;;;;;;;;;;21.19;57.17;101787.94;5055106;28;3051;-65
2022/11/14 01:36:53;;;;;;;;;;;;;;;21.19;57.06;101785.06;5062926;28;3107;-65
2022/11/14 01:39:38;;;;;;;;;;;;;;;21.17;57.25;101793.59;5059939;28;2901;-65
2022/11/14 01:42:23;;;;;;;;;;;;;;;21.18;57.03;101782.81;5047422;28;2953;-65
2022/11/14 01:45:30;;;;;;;;;;;;;;;21.18;57.07;101782.81;5057914;28;2917;-65
2022/11/14 01:48:19;;;;;;;;;;;;;;;21.18;57.23;101785.69;5061262;28;2911;-65
2022/11/14 01:51:07;;;;;;;;;;;;;;;21.15;57.03;101779.06;5062859;28;2943;-65
2022/11/14 01:53:53;;;;;;;;;;;;;;;21.14;57.19;101777.56;5059406;28;2869;-65
2022/11/14 01:56:39;;;;;;;;;;;;;;;21.15;57.07;101778.31;5060224;28;3007;-65
2022/11/14 01:59:24;;;;;;;;;;;;;;;21.13;57.04;101773.19;5060971;28;3012;-65
2022/11/14 02:02:15;;;;;;;;;;;;;;;21.12;57.06;101763.81;5053596;28;2954;-65
2022/11/14 02:05:02;;;;;;;;;;;;;;;21.12;57.09;101749.41;5057690;28;2961;-65
2022/11/14 02:07:47;;;;;;;;;;;;;;;21.12;57.26;101763.06;5052737;28;3174;-65
2022/11/14 02:10:31;;;;;;;;;;;;;;;21.12;57.37;101757.28;5053235;28;3148;-65
2022/11/14 02:13:16;;;;;;;;;;;;;;;21.11;57.29;101745.00;5052904;28;3030;-65
2022/11/14 02:16:01;;;;;;;;;;;;;;;21.09;57.19;101741.25;5056921;28;2939;-65
2022/11/14 02:18:46;;;;;;;;;;;;;;;21.10;57.45;101739.91;5048618;28;2967;-65
2022/11/14 02:21:31;;;;;;;;;;;;;;;21.09;57.34;101738.38;5049955;28;2962;-65
2022/11/14 02:24:17;;;;;;;;;;;;;;;21.10;57.25;101731.25;5056684;28;3230;-65
2022/11/14 02:27:03;;;;;;;;;;;;;;;21.11;57.39;101741.38;5057172;28;3004;-65
2022/11/14 02:29:47;;;;;;;;;;;;;;;21.08;57.41;101734.03;5058832;28;3284;-65
2022/11/14 02:32:32;;;;;;;;;;;;;;;21.08;57.34;101719.63;5063439;28;2783;-64
2022/11/14 02:35:37;;;;;;;;;;;;;;;21.07;57.36;101718.09;5059729;28;2956;-65
2022/11/14 02:38:22;;;;;;;;;;;;;;;21.07;57.15;101718.88;5063334;28;3089;-65
2022/11/14 02:41:16;;;;;;;;;;;;;;;21.07;57.11;101721.75;5056561;28;2825;-65
2022/11/14 02:44:01;;;;;;;;;;;;;;;21.06;57.42;101719.50;5057531;28;2842;-65
2022/11/14 02:46:46;;;;;;;;;;;;;;;21.09;57.18;101718.22;5062222;28;3244;-65
2022/11/14 02:49:31;;;;;;;;;;;;;;;21.05;57.27;101724.53;5058209;28;2916;-65
2022/11/14 02:52:17;;;;;;;;;;;;;;;21.06;57.20;101719.50;5058876;28;2953;-64
2022/11/14 02:55:02;;;;;;;;;;;;;;;21.04;57.39;101707.84;5048303;28;2894;-64
2022/11/14 02:57:47;;;;;;;;;;;;;;;21.04;57.09;101711.47;5059334;28;2812;-65
2022/11/14 03:00:32;;;;;;;;;;;;;;;21.07;57.07;101709.47;5059260;28;2791;-65
2022/11/14 03:03:17;;;;;;;;;;;;;;;21.05;57.25;101692.06;5061931;28;2804;-65
2022/11/14 03:06:02;;;;;;;;;;;;;;;21.04;57.08;101690.59;5062401;28;1991;-65
2022/11/14 03:08:47;;;;;;;;;;;;;;;21.04;57.24;101685.56;5052234;28;2914;-65
2022/11/14 03:11:32;;;;;;;;;;;;;;;21.03;57.30;101697.75;5043322;28;3089;-65
2022/11/14 03:14:16;;;;;;;;;;;;;;;21.04;57.30;101693.47;5054545;28;3016;-65
2022/11/14 03:17:01;;;;;;;;;;;;;;;21.01;57.17;101694.75;5066379;28;2986;-65
2022/11/14 03:19:46;;;;;;;;;;;;;;;21.01;57.41;101686.09;5063939;28;2598;-65
2022/11/14 03:22:31;;;;;;;;;;;;;;;21.01;57.13;101681.09;5060476;28;3023;-65
2022/11/14 03:25:16;;;;;;;;;;;;;;;20.97;57.30;101680.84;5063954;28;3154;-65
2022/11/14 03:28:00;;;;;;;;;;;;;;;21.00;57.23;101675.94;5059900;28;3055;-65
2022/11/14 03:30:45;;;;;;;;;;;;;;;21.00;57.10;101682.44;5054879;28;3064;-65
2022/11/14 03:33:30;;;;;;;;;;;;;;;21.00;57.06;101679.56;5054330;28;2980;-65
2022/11/14 03:36:16;;;;;;;;;;;;;;;20.99;57.44;101677.34;5063581;28;2823;-65
2022/11/14 03:39:01;;;;;;;;;;;;;;;21.00;57.33;101670.19;5062744;28;2842;-65
2022/11/14 03:41:46;;;;;;;;;;;;;;;21.01;57.23;101665.94;5064624;28;2828;-65
2022/11/14 03:44:31;;;;;;;;;;;;;;;20.95;57.23;101660.56;5062315;28;2929;-65
2022/11/14 03:47:16;;;;;;;;;;;;;;;20.97;57.27;101659.94;5056657;28;3266;-65
2022/11/14 03:50:00;;;;;;;;;;;;;;;20.97;57.27;101662.81;5066073;28;3157;-66
2022/11/14 03:52:47;;;;;;;;;;;;;;;20.99;57.32;101663.69;5066793;28;2860;-65
2022/11/14 03:55:33;;;;;;;;;;;;;;;21.02;57.35;101661.66;5065928;28;2846;-65
2022/11/14 03:58:17;;;;;;;;;;;;;;;21.05;57.40;101649.66;5066091;28;2810;-65
2022/11/14 04:01:02;;;;;;;;;;;;;;;21.06;57.50;101650.38;5056158;28;3420;-65
2022/11/14 04:03:48;;;;;;;;;;;;;;;21.10;57.49;101651.34;5063819;28;2941;-65
2022/11/14 04:06:32;;;;;;;;;;;;;;;21.11;57.17;101649.97;5064667;28;3207;-65
2022/11/14 04:09:18;;;;;;;;;;;;;;;21.13;57.32;101649.34;5059405;28;2854;-65
2022/11/14 04:12:03;;;;;;;;;;;;;;;21.14;57.37;101647.94;5062148;28;2901;-65
2022/11/14 04:14:47;;;;;;;;;;;;;;;21.14;57.37;101647.94;5059249;28;2891;-65
2022/11/14 04:17:32;;;;;;;;;;;;;;;21.14;57.72;101650.81;5044233;28;2969;-65
2022/11/14 04:20:23;;;;;;;;;;;;;;;21.13;57.52;101643.59;5060858;28;2992;-65
2022/11/14 04:23:08;;;;;;;;;;;;;;;21.12;57.46;101642.84;5059453;28;3032;-65
2022/11/14 04:25:53;;;;;;;;;;;;;;;21.16;57.80;101636.53;5061073;28;2922;-65
2022/11/14 04:28:38;;;;;;;;;;;;;;;21.15;57.36;101635.06;5070597;28;2425;-65
2022/11/14 04:31:22;;;;;;;;;;;;;;;21.22;57.59;101633.25;5072170;28;2901;-62
2022/11/14 04:34:48;;;;;;;;;;;;;;;21.10;57.50;101639.09;5067734;28;3115;-66
2022/11/14 04:37:32;;;;;;;;;;;;;;;21.13;57.58;101637.81;5047274;28;2517;-65
2022/11/14 04:40:17;;;;;;;;;;;;;;;21.16;57.73;101636.53;5041344;28;2773;-66
2022/11/14 04:43:02;;;;;;;;;;;;;;;21.18;57.94;101630.16;5046564;28;2343;-65
2022/11/14 04:45:47;;;;;;;;;;;;;;;21.18;57.59;101625.13;5044633;28;3011;-66
2022/11/14 04:48:32;;;;;;;;;;;;;;;21.19;58.12;101626.66;5055462;28;2950;-66
2022/11/14 04:51:17;;;;;;;;;;;;;;;21.20;58.03;101625.25;5057434;28;2996;-66
2022/11/14 04:54:02;;;;;;;;;;;;;;;21.20;58.20;101619.50;5054135;28;3141;-66
2022/11/14 04:56:46;;;;;;;;;;;;;;;21.23;58.41;101623.22;5054417;28;3069;-66
2022/11/14 04:59:31;;;;;;;;;;;;;;;21.23;58.48;101618.19;5064469;28;2818;-66
2022/11/14 05:02:16;;;;;;;;;;;;;;;21.25;58.39;101608.94;5050234;28;2579;-66
2022/11/14 05:05:01;;;;;;;;;;;;;;;21.25;57.98;101618.31;5062947;28;2430;-66
2022/11/14 05:07:46;;;;;;;;;;;;;;;21.24;58.55;101611.06;5055219;28;2552;-66
2022/11/14 05:10:31;;;;;;;;;;;;;;;21.25;58.68;101603.91;5059065;28;2890;-66
2022/11/14 05:13:15;;;;;;;;;;;;;;;21.24;58.80;101602.44;5055700;28;3293;-64
2022/11/14 05:16:00;;;;;;;;;;;;;;;21.26;58.87;101605.44;5060878;28;2830;-66
2022/11/14 05:18:45;;;;;;;;;;;;;;;21.24;58.73;101611.06;5060557;28;2468;-65
2022/11/14 05:21:30;;;;;;;;;;;;;;;21.21;58.84;101608.72;5062733;28;2398;-65
2022/11/14 05:24:15;;;;;;;;;;;;;;;21.23;59.19;101600.91;5054169;28;2421;-66
2022/11/14 05:27:00;;;;;;;;;;;;;;;21.23;59.09;101595.16;5061981;28;2644;-66
2022/11/14 05:29:45;;;;;;;;;;;;;;;21.25;58.54;101600.28;5046798;28;2901;-66
2022/11/14 05:32:30;;;;;;;;;;;;;;;21.28;59.06;101596.91;5061543;28;2904;-67
2022/11/14 05:35:15;;;;;;;;;;;;;;;21.27;58.64;101589.63;5055688;28;2950;-66
2022/11/14 05:38:01;;;;;;;;;;;;;;;21.27;58.83;101592.50;5057917;28;3367;-67
2022/11/14 05:40:46;;;;;;;;;;;;;;;21.29;59.02;101583.97;5061007;28;2940;-66
2022/11/14 05:43:30;;;;;;;;;;;;;;;21.30;59.11;101581.84;5051439;28;5246;-66
2022/11/14 05:46:15;;;;;;;;;;;;;;;21.29;59.11;101575.34;5065948;28;2996;-66
2022/11/14 05:49:00;;;;;;;;;;;;;;;21.30;59.27;101585.50;5054450;28;3056;-66
2022/11/14 05:51:45;;;;;;;;;;;;;;;21.30;59.03;101581.84;5059316;28;3009;-66
2022/11/14 05:54:30;;;;;;;;;;;;;;;21.32;58.67;101585.56;5068177;28;2889;-67
2022/11/14 05:57:15;;;;;;;;;;;;;;;21.31;58.79;101581.22;5066635;28;3079;-67
2022/11/14 06:00:00;;;;;;;;;;;;;;;18.75;55.42;101582.59;5068119;28;2953;-66
2022/11/14 06:02:45;;;;;;;;;;;;;;;18.12;54.85;101582.84;5073244;28;2952;-66
2022/11/14 06:05:30;;;;;;;;;;;;;;;18.03;56.05;101574.31;5062610;28;3174;-65
2022/11/14 06:08:19;;;;;;;;;;;;;;;18.89;55.67;101574.19;5055196;28;5310;-69
2022/11/14 06:11:04;;;;;;;;;;;;;;;17.80;53.73;101567.06;5061534;28;3024;-69
2022/11/14 06:13:59;;;;;;;;;;;;;;;17.59;54.04;101573.47;5071233;28;3027;-69
2022/11/14 06:16:45;;;;;;;;;;;;;;;17.68;54.01;101566.94;5065001;28;3445;-68
2022/11/14 06:19:31;;;;;;;;;;;;;;;19.63;53.51;101580.25;5060781;28;3387;-68
2022/11/14 06:22:16;;;;;;;;;;;;;;;20.42;54.89;101566.19;5070318;28;4703;-66
2022/11/14 06:25:02;;;;;;;;;;;;;;;20.73;54.71;101575.81;5058899;28;3028;-59
2022/11/14 06:27:47;;;;;;;;;;;;;;;21.07;53.97;101574.88;5061432;28;2981;-57
2022/11/14 06:30:32;;;;;;;;;;;;;;;21.28;53.65;101568.09;5066138;28;2974;-57
2022/11/14 06:33:17;;;;;;;;;;;;;;;21.41;54.08;101571.66;5065793;28;2965;-55
2022/11/14 06:36:03;;;;;;;;;;;;;;;21.49;54.19;101572.81;5058278;28;3100;-60
2022/11/14 06:38:48;;;;;;;;;;;;;;;21.51;54.47;101569.31;5071290;28;1588;-57
2022/11/14 06:41:33;;;;;;;;;;;;;;;21.49;54.55;101569.19;5066396;28;3005;-62
2022/11/14 06:44:18;;;;;;;;;;;;;;;21.25;55.48;101563.59;5053192;28;3484;-60
2022/11/14 06:47:03;;;;;;;;;;;;;;;21.28;55.69;101570.19;5054602;28;3502;-61
2022/11/14 06:49:48;;;;;;;;;;;;;;;21.37;55.67;101577.16;5055604;28;2984;-63
2022/11/14 06:52:33;;;;;;;;;;;;;;;21.47;55.53;101577.75;5064687;28;3032;-64
2022/11/14 06:55:18;;;;;;;;;;;;;;;21.73;55.15;101579.09;5065609;28;3011;-60
2022/11/14 06:58:09;;;;;;;;;;;;;;;21.89;54.71;101575.59;5061632;28;3024;-57
2022/11/14 07:00:54;;;;;;;;;;;;;;;21.83;54.83;101578.16;5057314;28;3204;-61
2022/11/14 07:03:42;;;;;;;;;;;;;;;21.89;54.81;101587.84;5063824;28;2917;-63
2022/11/14 07:06:28;;;;;;;;;;;;;;;21.81;54.90;101569.41;5072684;28;2619;-62
2022/11/14 07:09:13;;;;;;;;;;;;;;;21.66;55.18;101577.31;5058649;28;2767;-56
2022/11/14 07:11:58;;;;;;;;;;;;;;;21.36;55.90;101564.16;5051533;28;3332;-60
2022/11/14 07:14:43;;;;;;;;;;;;;;;20.65;53.90;101562.47;5066352;28;3016;-60
2022/11/14 07:17:27;;;;;;;;;;;;;;;20.70;53.38;101577.84;5069542;28;2310;-60
2022/11/14 07:20:17;;;;;;;;;;;;;;;21.20;54.46;101561.88;5054720;28;3400;-55
2022/11/14 07:23:02;;;;;;;;;;;;;;;21.42;52.97;101571.00;5064456;28;2857;-57
2022/11/14 07:25:47;;;;;;;;;;;;;;;21.45;52.57;101566.09;5065679;28;2909;-58
2022/11/14 07:28:32;;;;;;;;;;;;;;;21.42;51.81;101570.28;5069362;28;1662;-59
2022/11/14 07:31:18;;;;;;;;;;;;;;;21.30;52.00;101576.06;5061772;28;2858;-61
2022/11/14 07:34:04;;;;;;;;;;;;;;;21.12;52.60;101578.72;5072612;28;1607;-56
2022/11/14 07:36:49;;;;;;;;;;;;;;;21.15;52.30;101571.69;5058105;28;2825;-60
2022/11/14 07:39:34;;;;;;;;;;;;;;;21.14;52.00;101573.06;5055484;28;1932;-58
2022/11/14 07:42:19;;;;;;;;;;;;;;;21.11;52.41;101571.47;5056089;28;1536;-55
2022/11/14 07:45:04;;;;;;;;;;;;;;;21.18;52.22;101581.94;5060531;28;2433;-66
2022/11/14 07:47:52;;;;;;;;;;;;;;;21.31;51.42;101566.06;5065044;28;2539;-66
2022/11/14 07:50:37;;;;;;;;;;;;;;;21.47;54.19;101560.44;5069642;28;2548;-66
2022/11/14 07:53:23;;;;;;;;;;;;;;;21.62;53.76;101554.03;5067624;28;2599;-66
2022/11/14 07:56:11;;;;;;;;;;;;;;;21.65;54.34;101552.75;5077108;28;1978;-67
2022/11/14 07:58:56;;;;;;;;;;;;;;;21.45;55.27;101552.44;5068515;28;2512;-67
2022/11/14 08:01:41;;;;;;;;;;;;;;;21.51;54.99;101549.88;5073035;28;2524;-65
2022/11/14 08:04:26;;;;;;;;;;;;;;;21.74;55.75;101548.91;5066737;28;2647;-66
2022/11/14 08:07:11;;;;;;;;;;;;;;;21.99;54.42;101547.28;5055681;28;4005;-66
2022/11/14 08:09:56;;;;;;;;;;;;;;;22.05;54.25;101550.44;5054804;28;2932;-65
2022/11/14 08:12:41;;;;;;;;;;;;;;;22.10;54.15;101548.50;5058009;28;3017;-66
2022/11/14 08:15:26;;;;;;;;;;;;;;;22.12;54.06;101545.75;5056682;28;3001;-66
2022/11/14 08:18:11;;;;;;;;;;;;;;;22.12;54.52;101546.47;5057831;28;2885;-67
2022/11/14 08:20:56;;;;;;;;;;;;;;;22.20;54.36;101542.53;5049955;28;4895;-67
2022/11/14 08:23:41;;;;;;;;;;;;;;;22.22;54.09;101542.63;5051940;28;4832;-66
2022/11/14 08:26:26;;;;;;;;;;;;;;;22.15;54.41;101539.44;5053964;28;3099;-66
2022/11/14 08:29:18;;;;;;;;;;;;;;;22.17;54.51;101539.53;5056707;28;2909;-66
2022/11/14 08:32:03;;;;;;;;;;;;;;;22.19;54.53;101533.09;5054342;28;3242;-66
2022/11/14 08:34:47;;;;;;;;;;;;;;;22.28;54.29;101534.28;5063043;28;4694;-66
2022/11/14 08:37:32;;;;;;;;;;;;;;;22.26;54.18;101537.81;5060303;28;2811;-65
2022/11/14 08:40:17;;;;;;;;;;;;;;;22.23;54.40;101532.59;5058003;28;2997;-66
2022/11/14 08:43:02;;;;;;;;;;;;;;;22.31;54.21;101527.22;5059872;28;2661;-66
2022/11/14 08:45:46;;;;;;;;;;;;;;;22.08;54.96;101528.22;5063462;28;2600;-66
2022/11/14 08:48:31;;;;;;;;;;;;;;;21.97;55.31;101512.56;5063966;28;2691;-66
2022/11/14 08:51:17;;;;;;;;;;;;;;;22.10;55.23;101520.41;5050537;28;2960;-69
2022/11/14 08:54:02;;;;;;;;;;;;;;;22.13;54.87;101529.94;5057940;28;4788;-66
2022/11/14 08:56:47;;;;;;;;;;;;;;;22.21;54.83;101523.81;5058026;28;4233;-66
2022/11/14 08:59:32;;;;;;;;;;;;;;;22.15;54.91;101530.78;5064413;28;2767;-65
2022/11/14 09:02:17;;;;;;;;;;;;;;;22.00;55.07;101522.81;5064963;28;2818;-69
2022/11/14 09:05:02;;;;;;;;;;;;;;;21.96;55.46;101520.44;5067090;28;3044;-59
2022/11/14 09:07:46;;;;;;;;;;;;;;;22.07;55.16;101520.97;5067892;28;2590;-65
2022/11/14 09:10:31;;;;;;;;;;;;;;;22.09;55.30;101521.81;5061188;28;3152;-56
2022/11/14 09:13:16;;;;;;;;;;;;;;;22.06;55.55;101514.47;5062245;28;1594;-57
2022/11/14 09:16:01;;;;;;;;;;;;;;;22.05;55.25;101524.50;5069725;28;1927;-55
2022/11/14 09:18:46;;;;;;;;;;;;;;;22.00;55.45;101519.91;5069898;28;2608;-54
2022/11/14 09:21:31;;;;;;;;;;;;;;;22.06;55.32;101510.81;5069460;28;1978;-56
2022/11/14 09:24:16;;;;;;;;;;;;;;;22.09;55.29;101510.28;5070063;28;1622;-57
2022/11/14 09:27:01;;;;;;;;;;;;;;;22.11;55.27;101516.16;5069981;28;1903;-55
2022/11/14 09:29:46;;;;;;;;;;;;;;;22.15;55.31;101509.81;5070332;28;1850;-68
2022/11/14 09:32:31;;;;;;;;;;;;;;;22.14;55.33;101509.09;5060207;28;2709;-67
2022/11/14 09:35:16;;;;;;;;;;;;;;;22.14;55.22;101503.31;5070037;28;4059;-66
2022/11/14 09:38:01;;;;;;;;;;;;;;;22.14;55.47;101503.31;5066983;28;2763;-68
2022/11/14 09:40:58;;;;;;;;;;;;;;;22.10;55.44;101513.91;5063800;28;3036;-69
2022/11/14 09:43:54;;;;;;;;;;;;;;;21.92;55.96;101516.63;5068164;28;3057;-66
2022/11/14 09:46:45;;;;;;;;;;;;;;;21.81;56.13;101500.97;5063231;28;2990;-67
2022/11/14 09:49:33;;;;;;;;;;;;;;;21.83;56.31;101503.19;5050286;28;2961;-66
2022/11/14 09:52:26;;;;;;;;;;;;;;;21.90;56.25;101497.09;5063923;28;3092;-69
2022/11/14 09:55:12;;;;;;;;;;;;;;;22.09;56.31;101495.84;5059078;28;2949;-67
2022/11/14 09:57:57;;;;;;;;;;;;;;;21.91;55.79;101498.56;5056170;28;2870;-67
2022/11/14 10:00:46;;;;;;;;;;;;;;;22.04;56.16;101482.63;5062156;28;2535;-67
2022/11/14 10:03:46;;;;;;;;;;;;;;;22.10;55.93;101494.44;5066024;28;4693;-65
2022/11/14 10:06:32;;;;;;;;;;;;;;;22.29;55.73;101472.31;5064302;28;4796;-63
2022/11/14 10:09:29;;;;;;;;;;;;;;;22.31;55.27;101478.16;5066727;28;4302;-65
2022/11/14 10:12:21;;;;;;;;;;;;;;;22.30;55.45;101468.78;5070369;28;4827;-65
2022/11/14 10:15:12;;;;;;;;;;;;;;;22.36;55.65;101471.22;5068716;28;1652;-64
2022/11/14 10:18:18;;;;;;;;;;;;;;;22.32;55.52;101468.13;5070280;28;4274;-65
2022/11/14 10:21:09;;;;;;;;;;;;;;;22.24;55.26;101471.38;5064719;28;1901;-64
2022/11/14 10:24:12;;;;;;;;;;;;;;;22.35;55.50;101469.72;5063744;28;1619;-64
2022/11/14 10:27:01;;;;;;;;;;;;;;;22.24;55.43;101471.38;5060474;28;1697;-64
2022/11/14 10:30:07;;;;;;;;;;;;;;;22.27;55.62;101463.56;5063111;28;3955;-64
2022/11/14 10:32:58;;;;;;;;;;;;;;;22.32;55.52;101454.44;5062354;28;1615;-66
2022/11/14 10:35:54;;;;;;;;;;;;;;;22.28;55.32;101450.63;5053214;28;1790;-64
2022/11/14 10:39:02;;;;;;;;;;;;;;;22.38;55.48;101445.34;5052730;28;1552;-63
2022/11/14 10:41:48;;;;;;;;;;;;;;;22.44;54.98;101442.72;5046182;28;2019;-66
2022/11/14 10:44:49;;;;;;;;;;;;;;;22.43;54.85;101435.47;5062872;28;1608;-65
2022/11/14 10:47:39;;;;;;;;;;;;;;;22.38;55.07;101433.81;5058365;28;1580;-70
2022/11/14 10:50:26;;;;;;;;;;;;;;;22.49;54.82;101441.53;5060162;28;1615;-71
2022/11/14 10:53:13;;;;;;;;;;;;;;;22.64;55.00;101442.94;5067042;28;1675;-73
2022/11/14 10:55:58;;;;;;;;;;;;;;;22.73;54.04;101439.03;5058875;28;4483;-73
2022/11/14 10:58:49;;;;;;;;;;;;;;;22.82;54.33;101437.25;5058930;28;1567;-71
2022/11/14 11:01:35;;;;;;;;;;;;;;;22.81;54.27;101427.09;5065073;28;4220;-71
2022/11/14 11:04:27;;;;;;;;;;;;;;;22.80;54.14;101419.84;5064480;28;1658;-71
2022/11/14 11:13:32;;;;;;;;;;;;;;;22.83;54.44;101415.63;5064528;28;2917;-66
2022/11/14 11:16:18;;;;;;;;;;;;;;;22.69;54.54;101401.31;5062072;28;1659;-67
2022/11/14 11:19:25;;;;;;;;;;;;;;;22.79;54.09;101407.56;5061829;28;1727;-67
2022/11/14 11:22:24;;;;;;;;;;;;;;;22.49;55.24;101392.44;5066109;28;1971;-69
2022/11/14 11:25:20;;;;;;;;;;;;;;;22.48;54.90;101378.69;5061679;28;1548;-69
2022/11/14 11:28:12;;;;;;;;;;;;;;;22.54;54.69;101388.38;5061403;28;1596;-69
2022/11/14 11:30:59;;;;;;;;;;;;;;;22.54;54.84;101407.81;5061138;28;1619;-69
2022/11/14 11:33:44;;;;;;;;;;;;;;;22.56;55.16;101407.91;5063246;28;1598;-68
2022/11/14 11:36:29;;;;;;;;;;;;;;;22.59;54.60;101395.09;5059081;28;1599;-66
2022/11/14 11:39:26;;;;;;;;;;;;;;;22.58;54.86;101394.31;5056925;28;1552;-67
2022/11/14 11:42:16;;;;;;;;;;;;;;;22.51;54.85;101391.81;5063728;28;1972;-72
2022/11/14 11:45:02;;;;;;;;;;;;;;;22.30;54.97;101390.88;5060910;28;1885;-70
2022/11/14 11:48:07;;;;;;;;;;;;;;;22.32;55.50;101381.56;5065588;28;1689;-69
2022/11/14 11:50:52;;;;;;;;;;;;;;;22.37;55.02;101383.25;5066432;28;2011;-67
2022/11/14 11:53:38;;;;;;;;;;;;;;;22.30;55.42;101359.13;5064698;28;1624;-68
2022/11/14 11:56:29;;;;;;;;;;;;;;;22.29;55.21;101369.19;5064653;28;1689;-68
2022/11/14 11:59:23;;;;;;;;;;;;;;;22.41;55.47;101371.91;5066126;28;1686;-74
2022/11/14 12:02:19;;;;;;;;;;;;;;;22.52;55.09;101368.09;5060823;28;5021;-70
2022/11/14 12:05:05;;;;;;;;;;;;;;;22.57;55.19;101366.84;5069356;28;4212;-71
2022/11/14 12:07:58;;;;;;;;;;;;;;;22.63;54.68;101371.41;5066687;28;4208;-70
2022/11/14 12:10:44;;;;;;;;;;;;;;;22.53;55.50;101371.72;5067722;28;1658;-71
2022/11/14 12:13:49;;;;;;;;;;;;;;;22.35;55.28;101378.13;5045875;28;2822;-73
2022/11/14 12:16:49;;;;;;;;;;;;;;;22.30;55.23;101375.72;5061515;28;4621;-73
2022/11/14 12:19:37;;;;;;;;;;;;;;;22.26;55.35;101381.28;5061244;28;2524;-73
2022/11/14 12:22:28;;;;;;;;;;;;;;;22.22;55.48;101386.84;5063696;28;2607;-73
2022/11/14 12:25:26;;;;;;;;;;;;;;;22.24;55.67;101375.41;5063564;28;2476;-73
2022/11/14 12:28:29;;;;;;;;;;;;;;;22.21;55.67;101368.03;5065931;28;2532;-73
2022/11/14 12:31:15;;;;;;;;;;;;;;;22.19;55.67;101371.56;5069755;28;4193;-74
2022/11/14 12:34:12;;;;;;;;;;;;;;;22.18;55.73;101370.81;5066882;28;2500;-73
2022/11/14 12:36:57;;;;;;;;;;;;;;;22.23;55.58;101365.28;5051140;28;2498;-73
2022/11/14 12:39:42;;;;;;;;;;;;;;;22.14;55.69;101367.75;5058550;28;4006;-74
2022/11/14 12:42:27;;;;;;;;;;;;;;;22.21;55.55;101362.28;5067442;28;2835;-74
2022/11/14 12:45:31;;;;;;;;;;;;;;;22.20;55.66;101355.75;5072189;28;4432;-74
2022/11/14 12:48:25;;;;;;;;;;;;;;;22.22;55.78;101353.00;5060024;28;2666;-70
2022/11/14 12:51:25;;;;;;;;;;;;;;;22.50;55.99;101350.66;5062047;28;5294;-70
2022/11/14 12:54:29;;;;;;;;;;;;;;;22.71;55.42;101348.69;5069561;28;4097;-70
2022/11/14 12:57:46;;;;;;;;;;;;;;;22.76;54.93;101335.91;5067971;28;4204;-70
2022/11/14 13:00:21;;;;;;;;;;;;;;;22.80;54.82;101345.50;5067426;28;1628;-68
2022/11/14 13:03:19;;;;;;;;;;;;;;;22.78;54.66;101344.69;5069175;28;1600;-67
2022/11/14 13:06:10;;;;;;;;;;;;;;;22.79;54.48;101340.38;5071949;28;1682;-67
2022/11/14 13:09:01;;;;;;;;;;;;;;;22.79;54.75;101334.59;5061832;28;1591;-72
2022/11/14 13:24:18;;;;;;;;;;;;;;;22.63;54.37;101326.00;5054587;28;1618;-70
2022/11/14 13:27:21;;;;;;;;;;;;;;;22.64;55.13;101326.72;5063210;28;2629;-70
2022/11/14 13:30:52;;;;;;;;;;;;;;;22.49;54.86;101320.31;5058128;28;2723;-70
2022/11/14 13:33:38;;;;;;;;;;;;;;;22.36;55.40;101315.41;5060596;28;3227;-66
2022/11/14 13:36:33;;;;;;;;;;;;;;;22.31;55.74;101316.59;5051372;28;2617;-65
2022/11/14 13:39:37;;;;;;;;;;;;;;;22.26;55.90;101312.03;5042442;28;2941;-64
2022/11/14 13:42:45;;;;;;;;;;;;;;;22.24;55.95;101309.06;5056534;28;4742;-65
2022/11/14 13:45:36;;;;;;;;;;;;;;;22.29;55.88;101305.00;5056768;28;2620;-65
2022/11/14 13:48:28;;;;;;;;;;;;;;;22.23;55.88;101301.81;5045981;28;3060;-65
2022/11/14 13:51:13;;;;;;;;;;;;;;;22.23;56.13;101301.81;5056906;28;2900;-65
2022/11/14 13:54:18;;;;;;;;;;;;;;;22.23;56.02;101299.66;5058917;28;2799;-65
2022/11/14 13:57:19;;;;;;;;;;;;;;;22.23;55.79;101296.03;5053864;28;2989;-66
2022/11/14 14:00:11;;;;;;;;;;;;;;;22.22;55.97;101301.06;5048865;28;2937;-66
2022/11/14 14:03:30;;;;;;;;;;;;;;;22.22;56.33;101295.31;5051988;28;2974;-66
2022/11/14 14:06:19;;;;;;;;;;;;;;;22.21;56.14;101298.81;5051956;28;2975;-65
2022/11/14 14:09:31;;;;;;;;;;;;;;;22.22;56.38;101292.44;5067831;28;1631;-65
2022/11/14 14:12:25;;;;;;;;;;;;;;;22.23;56.17;101290.28;5053668;28;2918;-66
2022/11/14 14:15:13;;;;;;;;;;;;;;;22.11;55.94;101294.06;5058433;28;2898;-66
2022/11/14 14:18:04;;;;;;;;;;;;;;;21.92;54.82;101286.72;5059009;28;3197;-64
2022/11/14 14:21:07;;;;;;;;;;;;;;;21.65;53.21;101287.59;5064595;28;5016;-63
2022/11/14 14:24:04;;;;;;;;;;;;;;;21.75;52.15;101285.19;5059316;28;4781;-64
2022/11/14 14:26:56;;;;;;;;;;;;;;;20.66;48.07;101286.97;5073548;28;3081;-61
2022/11/14 14:29:44;;;;;;;;;;;;;;;19.83;46.17;101272.47;5077186;28;3101;-63
2022/11/14 14:32:29;;;;;;;;;;;;;;;19.62;45.47;101279.94;5078985;28;2979;-65
2022/11/14 14:35:24;;;;;;;;;;;;;;;19.43;45.57;101280.31;5079505;28;3144;-68
2022/11/14 14:38:12;;;;;;;;;;;;;;;20.26;45.76;101287.03;5081707;28;3192;-65
2022/11/14 14:40:57;;;;;;;;;;;;;;;21.24;47.10;101271.19;5076244;28;2837;-65
2022/11/14 14:43:43;;;;;;;;;;;;;;;21.49;47.11;101269.53;5069556;28;2930;-66
2022/11/14 14:46:29;;;;;;;;;;;;;;;21.56;48.04;101262.66;5068173;28;3245;-66
2022/11/14 14:49:17;;;;;;;;;;;;;;;21.77;47.68;101258.59;5078835;28;2956;-65
2022/11/14 14:52:17;;;;;;;;;;;;;;;22.01;48.29;101258.97;5063004;28;3691;-61
2022/11/14 14:55:03;;;;;;;;;;;;;;;22.06;48.50;101254.91;5072138;28;2874;-63